createdAt,value
2024-03-23T00:00:31.275Z,98811.98
2024-03-23T00:02:57.588Z,98810.95
2024-03-23T00:05:23.968Z,98808.52
2024-03-23T00:07:50.276Z,98804.85
2024-03-23T00:10:16.580Z,98801.00
2024-03-23T00:12:42.956Z,98797.71
2024-03-23T00:15:09.243Z,98798.96
2024-03-23T00:17:35.574Z,98791.27
2024-03-23T00:20:01.900Z,98786.56
2024-03-23T00:22:28.203Z,98785.48
2024-03-23T00:24:54.620Z,98788.08
2024-03-23T00:27:20.916Z,98788.42
2024-03-23T00:29:47.216Z,98788.95
2024-03-23T00:32:13.522Z,98790.16
2024-03-23T00:34:39.848Z,98786.13
2024-03-23T00:37:06.178Z,98784.41
2024-03-23T00:39:32.481Z,98775.86
2024-03-23T00:42:01.326Z,98772.86
2024-03-23T00:44:27.837Z,98767.98
2024-03-23T00:46:54.278Z,98761.21
2024-03-23T00:49:20.726Z,98766.66
2024-03-23T00:51:47.032Z,98765.11
2024-03-23T00:54:13.340Z,98766.70
2024-03-23T00:56:39.639Z,98766.01
2024-03-23T00:59:05.986Z,98768.63
2024-03-23T01:01:32.304Z,98766.02
2024-03-23T01:03:58.601Z,98763.41
2024-03-23T01:06:24.926Z,98758.92
2024-03-23T01:08:51.277Z,98752.67
2024-03-23T01:11:17.624Z,98746.06
2024-03-23T01:13:43.944Z,98744.13
2024-03-23T01:16:10.271Z,98742.91
2024-03-23T01:18:36.605Z,98740.84
2024-03-23T01:21:02.900Z,98740.11
2024-03-23T01:23:29.207Z,98738.17
2024-03-23T01:25:55.502Z,98735.02
2024-03-23T01:28:21.805Z,98730.64
2024-03-23T01:30:48.109Z,98725.90
2024-03-23T01:33:14.414Z,98722.41
2024-03-23T01:35:40.723Z,98722.21
2024-03-23T01:38:07.040Z,98720.86
2024-03-23T01:40:33.360Z,98720.55
2024-03-23T01:42:59.679Z,98718.98
2024-03-23T01:45:25.993Z,98716.91
2024-03-23T01:47:52.318Z,98716.70
2024-03-23T01:50:18.619Z,98712.67
2024-03-23T01:52:44.926Z,98713.19
2024-03-23T01:55:11.226Z,98712.29
2024-03-23T01:57:37.540Z,98710.36
2024-03-23T02:00:03.843Z,98706.16
2024-03-23T02:02:30.157Z,98700.23
2024-03-23T02:04:56.509Z,98700.46
2024-03-23T02:07:22.850Z,98700.82
2024-03-23T02:09:49.189Z,98699.61
2024-03-23T02:12:15.551Z,98699.08
2024-03-23T02:14:41.881Z,98697.98
2024-03-23T02:17:08.193Z,98697.47
2024-03-23T02:19:34.524Z,98690.39
2024-03-23T02:22:00.847Z,98686.95
2024-03-23T02:24:27.184Z,98680.85
2024-03-23T02:26:53.523Z,98676.66
2024-03-23T02:29:19.835Z,98671.09
2024-03-23T02:31:46.213Z,98664.98
2024-03-23T02:34:12.533Z,98661.88
2024-03-23T02:36:38.861Z,98659.86
2024-03-23T02:39:05.187Z,98659.23
2024-03-23T02:41:31.480Z,98656.78
2024-03-23T02:43:57.820Z,98664.30
2024-03-23T02:46:24.128Z,98667.65
2024-03-23T02:48:50.482Z,98661.52
2024-03-23T02:51:16.794Z,98661.62
2024-03-23T02:53:43.122Z,98664.08
2024-03-23T02:56:09.464Z,98665.70
2024-03-23T02:58:35.797Z,98669.23
2024-03-23T03:01:02.123Z,98669.40
2024-03-23T03:03:28.485Z,98666.56
2024-03-23T03:05:54.797Z,98654.70
2024-03-23T03:08:21.159Z,98654.19
2024-03-23T03:10:47.455Z,98647.20
2024-03-23T03:13:13.761Z,98646.00
2024-03-23T03:15:40.062Z,98644.27
2024-03-23T03:18:06.351Z,98644.57
2024-03-23T03:20:32.757Z,98646.64
2024-03-23T03:22:59.096Z,98642.14
2024-03-23T03:25:25.429Z,98638.54
2024-03-23T03:27:51.774Z,98638.91
2024-03-23T03:30:18.105Z,98636.15
2024-03-23T03:32:44.435Z,98633.35
2024-03-23T03:35:10.743Z,98631.49
2024-03-23T03:37:37.107Z,98632.91
2024-03-23T03:40:03.405Z,98633.56
2024-03-23T03:42:29.789Z,98633.91
2024-03-23T03:44:56.158Z,98635.52
2024-03-23T03:47:22.510Z,98631.55
2024-03-23T03:49:48.822Z,98634.76
2024-03-23T03:52:15.131Z,98637.18
2024-03-23T03:54:41.453Z,98633.34
2024-03-23T03:57:07.768Z,98630.95
2024-03-23T03:59:34.129Z,98631.18
2024-03-23T04:02:00.449Z,98627.23
2024-03-23T04:04:26.999Z,98627.30
2024-03-23T04:06:53.330Z,98631.86
2024-03-23T04:09:19.643Z,98631.75
2024-03-23T04:11:45.933Z,98628.48
2024-03-23T04:14:12.235Z,98625.31
2024-03-23T04:16:38.541Z,98629.55
2024-03-23T04:19:04.877Z,98625.37
2024-03-23T04:21:31.232Z,98624.70
2024-03-23T04:23:57.667Z,98625.05
2024-03-23T04:26:23.989Z,98622.80
2024-03-23T04:28:50.304Z,98622.11
2024-03-23T04:31:16.642Z,98612.63
2024-03-23T04:33:42.959Z,98617.48
2024-03-23T04:36:09.296Z,98618.92
2024-03-23T04:38:35.693Z,98614.77
2024-03-23T04:41:02.050Z,98609.98
2024-03-23T04:43:28.417Z,98610.23
2024-03-23T04:45:54.748Z,98608.70
2024-03-23T04:48:21.067Z,98604.74
2024-03-23T04:50:47.422Z,98602.43
2024-03-23T04:53:13.764Z,98603.24
2024-03-23T04:55:40.055Z,98601.09
2024-03-23T04:58:06.547Z,98602.79
2024-03-23T05:00:32.897Z,98597.87
2024-03-23T05:02:59.237Z,98598.15
2024-03-23T05:05:25.550Z,98598.69
2024-03-23T05:07:51.875Z,98599.84
2024-03-23T05:10:18.220Z,98600.83
2024-03-23T05:12:44.534Z,98599.16
2024-03-23T05:15:10.861Z,98598.36
2024-03-23T05:17:37.261Z,98594.29
2024-03-23T05:20:03.586Z,98590.45
2024-03-23T05:22:29.911Z,98590.42
2024-03-23T05:24:56.264Z,98589.84
2024-03-23T05:27:22.559Z,98588.20
2024-03-23T05:29:48.853Z,98588.00
2024-03-23T05:32:15.142Z,98584.98
2024-03-23T05:34:41.438Z,98582.09
2024-03-23T05:37:08.012Z,98581.58
2024-03-23T05:39:34.343Z,98582.22
2024-03-23T05:42:00.640Z,98584.33
2024-03-23T05:44:26.969Z,98579.81
2024-03-23T05:46:53.285Z,98578.52
2024-03-23T05:49:19.581Z,98579.59
2024-03-23T05:51:45.938Z,98579.12
2024-03-23T05:54:12.239Z,98579.96
2024-03-23T05:56:38.723Z,98582.38
2024-03-23T05:59:05.022Z,98583.27
2024-03-23T06:01:31.340Z,98581.58
2024-03-23T06:03:57.665Z,98578.66
2024-03-23T06:06:23.992Z,98579.26
2024-03-23T06:08:50.336Z,98583.48
2024-03-23T06:11:16.656Z,98583.65
2024-03-23T06:13:42.957Z,98584.30
2024-03-23T06:16:09.451Z,98579.19
2024-03-23T06:18:35.778Z,98576.14
2024-03-23T06:21:02.075Z,98572.46
2024-03-23T06:23:28.416Z,98571.86
2024-03-23T06:25:54.775Z,98571.41
2024-03-23T06:28:21.083Z,98565.18
2024-03-23T06:30:47.446Z,98567.53
2024-03-23T06:33:13.740Z,98565.80
2024-03-23T06:35:40.136Z,98561.94
2024-03-23T06:38:06.617Z,98560.40
2024-03-23T06:40:33.001Z,98558.21
2024-03-23T06:42:59.320Z,98558.24
2024-03-23T06:45:25.639Z,98557.73
2024-03-23T06:47:51.957Z,98558.55
2024-03-23T06:50:18.266Z,98554.48
2024-03-23T06:52:44.569Z,98553.02
2024-03-23T06:55:11.141Z,98548.92
2024-03-23T06:57:37.483Z,98546.90
2024-03-23T07:00:06.200Z,98546.25
2024-03-23T07:02:32.570Z,98544.65
2024-03-23T07:04:58.881Z,98542.21
2024-03-23T07:07:25.213Z,98548.70
2024-03-23T07:09:51.738Z,98550.95
2024-03-23T07:12:18.063Z,98552.70
2024-03-23T07:14:44.384Z,98552.28
2024-03-23T07:17:10.736Z,98552.89
2024-03-23T07:19:37.076Z,98553.49
2024-03-23T07:22:03.401Z,98554.02
2024-03-23T07:24:29.712Z,98548.67
2024-03-23T07:26:56.024Z,98545.64
2024-03-23T07:29:22.341Z,98537.95
2024-03-23T07:31:48.673Z,98533.75
2024-03-23T07:34:14.995Z,98529.81
2024-03-23T07:36:41.316Z,98525.97
2024-03-23T07:39:12.976Z,98529.42
2024-03-23T07:41:39.667Z,98527.43
2024-03-23T07:44:05.994Z,98524.89
2024-03-23T07:46:32.321Z,98522.41
2024-03-23T07:48:58.656Z,98513.19
2024-03-23T07:51:24.986Z,98511.80
2024-03-23T07:53:51.317Z,98511.10
2024-03-23T07:56:17.636Z,98508.84
2024-03-23T07:58:44.147Z,98506.84
2024-03-23T08:01:10.485Z,98499.61
2024-03-23T08:03:39.744Z,98493.02
2024-03-23T08:06:06.055Z,98488.40
2024-03-23T08:08:32.481Z,98485.05
2024-03-23T08:10:58.790Z,98483.27
2024-03-23T08:13:25.090Z,98482.40
2024-03-23T08:15:51.426Z,98482.36
2024-03-23T08:18:17.774Z,98477.61
2024-03-23T08:20:44.230Z,98472.05
2024-03-23T08:23:10.563Z,98469.02
2024-03-23T08:25:36.937Z,98463.77
2024-03-23T08:28:03.263Z,98463.44
2024-03-23T08:30:29.591Z,98461.28
2024-03-23T08:32:55.919Z,98456.77
2024-03-23T08:35:22.243Z,98449.25
2024-03-23T08:37:48.559Z,98445.77
2024-03-23T08:40:14.944Z,98440.11
2024-03-23T08:42:41.314Z,98433.98
2024-03-23T08:45:07.616Z,98432.86
2024-03-23T08:47:33.939Z,98433.63
2024-03-23T08:50:00.367Z,98433.34
2024-03-23T08:52:26.806Z,98430.81
2024-03-23T08:54:53.117Z,98427.27
2024-03-23T08:57:19.435Z,98419.65
2024-03-23T08:59:45.748Z,98415.85
2024-03-23T09:02:12.154Z,98420.05
2024-03-23T09:04:38.573Z,98414.49
2024-03-23T09:07:04.887Z,98407.27
2024-03-23T09:09:31.217Z,98406.45
2024-03-23T09:11:57.552Z,98394.16
2024-03-23T09:14:24.012Z,98391.98
2024-03-23T09:16:50.358Z,98385.53
2024-03-23T09:19:18.271Z,98384.89
2024-03-23T09:21:44.572Z,98375.38
2024-03-23T09:24:10.891Z,98374.78
2024-03-23T09:26:37.267Z,98373.94
2024-03-23T09:29:03.605Z,98368.47
2024-03-23T09:31:29.921Z,98366.87
2024-03-23T09:33:56.275Z,98360.95
2024-03-23T09:36:22.586Z,98358.21
2024-03-23T09:38:49.185Z,98355.33
2024-03-23T09:41:15.529Z,98355.49
2024-03-23T09:43:41.864Z,98353.79
2024-03-23T09:46:08.160Z,98362.25
2024-03-23T09:48:34.507Z,98363.36
2024-03-23T09:51:00.850Z,98359.59
2024-03-23T09:53:27.273Z,98357.20
2024-03-23T09:55:53.584Z,98352.21
2024-03-23T09:58:20.004Z,98348.93
2024-03-23T10:00:46.354Z,98345.80
2024-03-23T10:03:12.647Z,98340.78
2024-03-23T10:05:41.771Z,98336.09
2024-03-23T10:08:11.301Z,98331.57
2024-03-23T10:10:37.622Z,98328.71
2024-03-23T10:13:03.948Z,98326.02
2024-03-23T10:15:30.366Z,98318.27
2024-03-23T10:17:56.797Z,98314.48
2024-03-23T10:20:23.108Z,98312.45
2024-03-23T10:22:49.441Z,98308.44
2024-03-23T10:25:15.891Z,98305.92
2024-03-23T10:27:42.238Z,98307.52
2024-03-23T10:30:08.560Z,98306.33
2024-03-23T10:32:34.914Z,98302.38
2024-03-23T10:35:01.271Z,98297.06
2024-03-23T10:37:27.598Z,98296.15
2024-03-23T10:39:53.898Z,98289.49
2024-03-23T10:42:20.344Z,98286.29
2024-03-23T10:44:46.680Z,98280.93
2024-03-23T10:47:13.011Z,98270.73
2024-03-23T10:49:39.351Z,98265.34
2024-03-23T10:52:05.732Z,98260.27
2024-03-23T10:54:32.120Z,98259.02
2024-03-23T10:56:58.491Z,98251.67
2024-03-23T10:59:24.823Z,98243.36
2024-03-23T11:01:51.196Z,98238.73
2024-03-23T11:04:17.522Z,98232.39
2024-03-23T11:06:43.904Z,98229.58
2024-03-23T11:09:10.241Z,98233.34
2024-03-23T11:11:36.571Z,98227.44
2024-03-23T11:14:02.864Z,98218.98
2024-03-23T11:16:29.189Z,98209.02
2024-03-23T11:18:55.510Z,98202.00
2024-03-23T11:21:21.907Z,98202.30
2024-03-23T11:23:48.227Z,98198.99
2024-03-23T11:26:14.560Z,98197.36
2024-03-23T11:28:40.896Z,98190.27
2024-03-23T11:31:07.218Z,98185.69
2024-03-23T11:33:33.557Z,98185.09
2024-03-23T11:36:00.104Z,98182.50
2024-03-23T11:38:26.422Z,98172.54
2024-03-23T11:40:52.984Z,98165.55
2024-03-23T11:43:19.294Z,98153.49
2024-03-23T11:45:45.645Z,98139.98
2024-03-23T11:48:11.985Z,98131.29
2024-03-23T11:50:38.299Z,98124.42
2024-03-23T11:53:04.683Z,98115.15
2024-03-23T11:55:30.984Z,98115.31
2024-03-23T11:57:57.320Z,98117.01
2024-03-23T12:00:23.657Z,98119.37
2024-03-23T12:02:49.961Z,98113.43
2024-03-23T12:05:16.378Z,98115.29
2024-03-23T12:07:42.917Z,98110.56
2024-03-23T12:10:09.214Z,98101.16
2024-03-23T12:12:35.524Z,98094.33
2024-03-23T12:15:01.890Z,98088.39
2024-03-23T12:17:28.229Z,98082.91
2024-03-23T12:19:54.531Z,98075.75
2024-03-23T12:22:20.853Z,98069.52
2024-03-23T12:24:47.164Z,98071.00
2024-03-23T12:27:13.519Z,98064.48
2024-03-23T12:29:39.869Z,98063.40
2024-03-23T12:32:06.279Z,98056.07
2024-03-23T12:34:32.616Z,98053.55
2024-03-23T12:36:58.924Z,98049.11
2024-03-23T12:39:25.225Z,98036.29
2024-03-23T12:41:51.555Z,98033.15
2024-03-23T12:44:18.837Z,98032.41
2024-03-23T12:46:45.318Z,98028.42
2024-03-23T12:49:14.680Z,98025.22
2024-03-23T12:51:40.995Z,98024.91
2024-03-23T12:54:07.500Z,98019.27
2024-03-23T12:56:33.933Z,98017.62
2024-03-23T12:59:00.239Z,98013.55
2024-03-23T13:01:26.666Z,98012.23
2024-03-23T13:03:52.982Z,98008.09
2024-03-23T13:06:19.276Z,97998.16
2024-03-23T13:08:45.595Z,97992.77
2024-03-23T13:11:11.885Z,97988.67
2024-03-23T13:13:38.174Z,97979.56
2024-03-23T13:16:04.479Z,97979.23
2024-03-23T13:18:30.783Z,97971.20
2024-03-23T13:20:57.103Z,97969.05
2024-03-23T13:23:23.415Z,97966.25
2024-03-23T13:25:49.712Z,97961.34
2024-03-23T13:28:16.048Z,97950.47
2024-03-23T13:30:42.425Z,97941.54
2024-03-23T13:33:08.762Z,97932.35
2024-03-23T13:35:35.081Z,97920.77
2024-03-23T13:38:01.415Z,97918.38
2024-03-23T13:40:27.751Z,97913.54
2024-03-23T13:42:54.078Z,97904.54
2024-03-23T13:45:20.399Z,97903.89
2024-03-23T13:47:46.784Z,97892.15
2024-03-23T13:50:13.098Z,97886.66
2024-03-23T13:52:39.407Z,97882.02
2024-03-23T13:55:05.729Z,97885.94
2024-03-23T13:57:32.054Z,97885.54
2024-03-23T13:59:58.520Z,97886.60
2024-03-23T14:02:24.823Z,97884.47
2024-03-23T14:04:51.169Z,97879.55
2024-03-23T14:07:17.493Z,97868.93
2024-03-23T14:09:43.827Z,97863.73
2024-03-23T14:12:10.145Z,97857.32
2024-03-23T14:14:36.474Z,97847.56
2024-03-23T14:17:02.809Z,97841.39
2024-03-23T14:19:29.317Z,97841.55
2024-03-23T14:21:55.624Z,97839.39
2024-03-23T14:24:21.939Z,97834.17
2024-03-23T14:26:48.280Z,97826.45
2024-03-23T14:29:14.612Z,97824.65
2024-03-23T14:31:41.068Z,97815.58
2024-03-23T14:34:07.384Z,97811.66
2024-03-23T14:36:33.694Z,97810.54
2024-03-23T14:39:00.207Z,97807.52
2024-03-23T14:41:26.505Z,97804.18
2024-03-23T14:43:52.907Z,97798.96
2024-03-23T14:46:19.218Z,97797.25
2024-03-23T14:48:45.529Z,97797.50
2024-03-23T14:51:11.869Z,97794.20
2024-03-23T14:53:38.178Z,97789.23
2024-03-23T14:56:04.513Z,97785.02
2024-03-23T14:58:31.015Z,97783.38
2024-03-23T15:00:57.350Z,97782.59
2024-03-23T15:03:23.670Z,97783.31
2024-03-23T15:05:50.015Z,97784.16
2024-03-23T15:08:16.386Z,97787.01
2024-03-23T15:10:42.683Z,97786.04
2024-03-23T15:13:08.995Z,97777.96
2024-03-23T15:15:35.306Z,97776.73
2024-03-23T15:18:01.932Z,97768.05
2024-03-23T15:20:28.235Z,97762.71
2024-03-23T15:22:54.541Z,97758.23
2024-03-23T15:25:20.863Z,97756.98
2024-03-23T15:27:49.570Z,97755.16
2024-03-23T15:30:17.945Z,97749.36
2024-03-23T15:32:44.306Z,97742.91
2024-03-23T15:35:10.596Z,97739.31
2024-03-23T15:37:36.911Z,97734.83
2024-03-23T15:40:03.221Z,97728.47
2024-03-23T15:42:29.570Z,97726.55
2024-03-23T15:44:55.889Z,97728.59
2024-03-23T15:47:22.203Z,97736.82
2024-03-23T15:49:48.533Z,97738.16
2024-03-23T15:52:14.861Z,97733.59
2024-03-23T15:54:41.157Z,97727.11
2024-03-23T15:57:07.469Z,97727.11
2024-03-23T15:59:33.922Z,97720.20
2024-03-23T16:02:00.236Z,97724.41
2024-03-23T16:04:26.563Z,97722.70
2024-03-23T16:06:52.862Z,97716.18
2024-03-23T16:09:19.194Z,97712.21
2024-03-23T16:11:45.538Z,97702.75
2024-03-23T16:14:11.849Z,97699.41
2024-03-23T16:16:38.200Z,97691.29
2024-03-23T16:19:04.514Z,97691.20
2024-03-23T16:21:31.048Z,97687.16
2024-03-23T16:23:57.376Z,97679.73
2024-03-23T16:26:23.705Z,97670.52
2024-03-23T16:28:50.050Z,97674.95
2024-03-23T16:31:16.377Z,97679.58
2024-03-23T16:33:42.717Z,97684.88
2024-03-23T16:36:09.085Z,97681.66
2024-03-23T16:38:35.599Z,97677.02
2024-03-23T16:41:01.958Z,97678.20
2024-03-23T16:43:28.277Z,97680.25
2024-03-23T16:45:54.600Z,97693.25
2024-03-23T16:48:20.917Z,97703.30
2024-03-23T16:50:47.229Z,97716.49
2024-03-23T16:53:13.538Z,97732.04
2024-03-23T16:55:39.883Z,97754.60
2024-03-23T16:58:06.366Z,97767.41
2024-03-23T17:00:32.732Z,97774.55
2024-03-23T17:02:59.159Z,97779.45
2024-03-23T17:05:25.459Z,97787.54
2024-03-23T17:07:51.773Z,97792.69
2024-03-23T17:10:18.089Z,97790.10
2024-03-23T17:12:44.448Z,97803.23
2024-03-23T17:15:13.026Z,97805.21
2024-03-23T17:17:41.045Z,97804.86
2024-03-23T17:20:07.545Z,97807.49
2024-03-23T17:22:33.862Z,97816.16
2024-03-23T17:25:00.265Z,97826.80
2024-03-23T17:27:26.668Z,97833.02
2024-03-23T17:29:53.060Z,97842.15
2024-03-23T17:32:19.366Z,97848.91
2024-03-23T17:34:45.669Z,97849.98
2024-03-23T17:37:12.003Z,97850.59
2024-03-23T17:39:38.623Z,97844.15
2024-03-23T17:42:04.947Z,97856.00
2024-03-23T17:44:31.272Z,97854.92
2024-03-23T17:46:57.603Z,97858.33
2024-03-23T17:49:23.908Z,97867.33
2024-03-23T17:51:50.289Z,97874.84
2024-03-23T17:54:16.612Z,97877.13
2024-03-23T17:56:42.928Z,97874.33
2024-03-23T17:59:09.392Z,97869.14
2024-03-23T18:01:35.724Z,97882.45
2024-03-23T18:04:02.047Z,97869.67
2024-03-23T18:06:28.396Z,97868.23
2024-03-23T18:08:54.698Z,97867.63
2024-03-23T18:11:20.989Z,97871.09
2024-03-23T18:13:47.306Z,97870.89
2024-03-23T18:16:16.220Z,97878.33
2024-03-23T18:18:44.422Z,97881.91
2024-03-23T18:21:10.728Z,97890.98
2024-03-23T18:23:39.032Z,97901.70
2024-03-23T18:26:05.512Z,97910.70
2024-03-23T18:28:31.827Z,97910.52
2024-03-23T18:30:58.143Z,97904.77
2024-03-23T18:33:24.565Z,97907.91
2024-03-23T18:35:50.897Z,97905.20
2024-03-23T18:38:17.195Z,97903.03
2024-03-23T18:40:43.510Z,97903.77
2024-03-23T18:43:09.883Z,97901.45
2024-03-23T18:45:36.214Z,97907.71
2024-03-23T18:48:05.018Z,97910.50
2024-03-23T18:50:31.719Z,97912.45
2024-03-23T18:52:58.032Z,97908.52
2024-03-23T18:55:24.589Z,97907.06
2024-03-23T18:57:50.941Z,97909.45
2024-03-23T19:00:17.244Z,97912.92
2024-03-23T19:02:43.556Z,97910.67
2024-03-23T19:05:09.962Z,97910.77
2024-03-23T19:07:36.275Z,97908.73
2024-03-23T19:10:02.925Z,97905.11
2024-03-23T19:12:29.295Z,97911.61
2024-03-23T19:14:55.654Z,97912.14
2024-03-23T19:17:22.011Z,97914.16
2024-03-23T19:19:49.147Z,97911.41
2024-03-23T19:22:15.471Z,97908.86
2024-03-23T19:24:42.011Z,97913.54
2024-03-23T19:27:08.316Z,97912.46
2024-03-23T19:29:34.624Z,97913.70
2024-03-23T19:32:00.967Z,97906.02
2024-03-23T19:34:27.278Z,97908.50
2024-03-23T19:36:53.605Z,97910.52
2024-03-23T19:39:19.912Z,97910.41
2024-03-23T19:41:46.218Z,97917.10
2024-03-23T19:44:12.712Z,97915.70
2024-03-23T19:46:39.083Z,97913.35
2024-03-23T19:49:05.413Z,97914.33
2024-03-23T19:51:31.728Z,97916.23
2024-03-23T19:53:58.567Z,97915.31
2024-03-23T19:56:26.089Z,97923.19
2024-03-23T19:58:52.439Z,97929.65
2024-03-23T20:01:18.779Z,97929.92
2024-03-23T20:03:45.083Z,97928.61
2024-03-23T20:06:11.437Z,97927.06
2024-03-23T20:08:37.751Z,97929.11
2024-03-23T20:11:04.104Z,97939.29
2024-03-23T20:13:30.402Z,97932.89
2024-03-23T20:15:56.714Z,97947.98
2024-03-23T20:18:23.069Z,97941.42
2024-03-23T20:20:49.385Z,97971.38
2024-03-23T20:23:15.707Z,97992.13
2024-03-23T20:25:42.020Z,97978.76
2024-03-23T20:28:08.331Z,97988.60
2024-03-23T20:30:34.646Z,98001.20
2024-03-23T20:33:00.951Z,98015.56
2024-03-23T20:35:27.272Z,98009.10
2024-03-23T20:37:53.557Z,98007.07
2024-03-23T20:40:19.879Z,97995.20
2024-03-23T20:42:46.205Z,97998.70
2024-03-23T20:45:12.523Z,98024.73
2024-03-23T20:47:38.830Z,98030.00
2024-03-23T20:50:05.122Z,98024.96
2024-03-23T20:52:31.436Z,98019.05
2024-03-23T20:54:57.770Z,98023.59
2024-03-23T20:57:24.105Z,98021.33
2024-03-23T20:59:50.431Z,98029.98
2024-03-23T21:02:16.819Z,98024.41
2024-03-23T21:04:43.121Z,98053.39
2024-03-23T21:07:09.443Z,98041.61
2024-03-23T21:09:37.081Z,98049.66
2024-03-23T21:12:04.562Z,98043.70
2024-03-23T21:14:30.896Z,98050.22
2024-03-23T21:16:57.184Z,98039.55
2024-03-23T21:19:23.499Z,98038.27
2024-03-23T21:21:49.807Z,98049.36
2024-03-23T21:24:16.167Z,98059.95
2024-03-23T21:26:42.501Z,98052.29
2024-03-23T21:29:08.810Z,98057.27
2024-03-23T21:31:35.145Z,98080.72
2024-03-23T21:34:01.509Z,98102.47
2024-03-23T21:36:27.812Z,98118.98
2024-03-23T21:38:54.130Z,98117.09
2024-03-23T21:41:20.454Z,98111.98
2024-03-23T21:43:46.845Z,98128.42
2024-03-23T21:46:13.293Z,98136.01
2024-03-23T21:48:39.614Z,98146.61
2024-03-23T21:51:06.003Z,98152.70
2024-03-23T21:53:32.320Z,98152.52
2024-03-23T21:55:58.641Z,98152.50
2024-03-23T21:58:24.971Z,98159.07
2024-03-23T22:00:51.299Z,98158.33
2024-03-23T22:03:17.654Z,98146.70
2024-03-23T22:05:43.998Z,98165.66
2024-03-23T22:08:10.328Z,98143.77
2024-03-23T22:10:39.604Z,98129.91
2024-03-23T22:13:07.151Z,98133.15
2024-03-23T22:15:33.498Z,98123.40
2024-03-23T22:17:59.818Z,98124.17
2024-03-23T22:20:26.124Z,98125.96
2024-03-23T22:22:52.448Z,98139.69
2024-03-23T22:25:18.871Z,98147.19
2024-03-23T22:27:45.186Z,98160.25
2024-03-23T22:30:11.494Z,98164.84
2024-03-23T22:32:37.794Z,98155.01
2024-03-23T22:35:04.108Z,98160.38
2024-03-23T22:37:30.414Z,98166.10
2024-03-23T22:39:56.736Z,98171.34
2024-03-23T22:42:23.044Z,98160.60
2024-03-23T22:44:49.332Z,98159.13
2024-03-23T22:47:15.643Z,98153.98
2024-03-23T22:49:41.954Z,98161.48
2024-03-23T22:52:08.290Z,98160.00
2024-03-23T22:54:34.595Z,98169.54
2024-03-23T22:57:00.891Z,98175.59
2024-03-23T22:59:27.219Z,98183.70
2024-03-23T23:01:53.520Z,98186.28
2024-03-23T23:04:19.891Z,98183.82
2024-03-23T23:06:46.200Z,98183.50
2024-03-23T23:09:12.502Z,98170.91
2024-03-23T23:11:38.816Z,98178.58
2024-03-23T23:14:05.132Z,98182.50
2024-03-23T23:16:31.482Z,98178.08
2024-03-23T23:18:57.859Z,98160.27
2024-03-23T23:21:24.182Z,98172.77
2024-03-23T23:23:50.830Z,98163.92
2024-03-23T23:26:17.144Z,98143.10
2024-03-23T23:28:43.439Z,98172.08
2024-03-23T23:31:09.795Z,98168.19
2024-03-23T23:33:36.122Z,98163.60
2024-03-23T23:36:02.457Z,98153.08
2024-03-23T23:38:28.794Z,98151.95
2024-03-23T23:40:55.140Z,98147.72
2024-03-23T23:43:21.586Z,98159.33
2024-03-23T23:45:47.892Z,98152.02
2024-03-23T23:48:14.233Z,98153.90
2024-03-23T23:50:41.329Z,98159.60
2024-03-23T23:53:07.754Z,98159.66
2024-03-23T23:55:34.086Z,98158.83
2024-03-23T23:58:00.417Z,98145.52
